createdAt,value
2019-01-14T00:03:36.808Z,4.52
2019-01-14T00:08:40.039Z,4.47
2019-01-14T00:13:43.425Z,4.38
2019-01-14T00:18:46.643Z,4.39
2019-01-14T00:23:49.856Z,4.45
2019-01-14T00:28:53.254Z,4.49
2019-01-14T00:33:56.459Z,4.49
2019-01-14T00:38:59.739Z,4.34
2019-01-14T00:44:02.963Z,4.27
2019-01-14T00:49:06.218Z,4.22
2019-01-14T00:54:10.663Z,4.19
2019-01-14T00:59:12.917Z,4.19
2019-01-14T01:04:16.164Z,4.22
2019-01-14T01:09:19.426Z,4.28
2019-01-14T01:14:22.767Z,4.16
2019-01-14T01:19:26.028Z,4.09
2019-01-14T01:24:29.305Z,3.97
2019-01-14T01:29:32.495Z,3.98
2019-01-14T01:34:35.770Z,3.97
2019-01-14T01:39:39.005Z,3.95
2019-01-14T01:44:42.245Z,3.97
2019-01-14T01:49:45.495Z,4.06
2019-01-14T01:54:48.844Z,4.00
2019-01-14T01:59:52.065Z,4.03
2019-01-14T02:04:55.262Z,4.00
2019-01-14T02:09:58.470Z,3.89
2019-01-14T02:15:01.672Z,3.91
2019-01-14T02:20:05.488Z,3.90
2019-01-14T02:25:09.021Z,3.96
2019-01-14T02:30:15.940Z,3.92
2019-01-14T02:35:19.166Z,3.92
2019-01-14T02:40:22.831Z,3.96
2019-01-14T02:45:26.049Z,3.92
2019-01-14T02:50:29.268Z,4.00
2019-01-14T02:55:32.496Z,3.89
2019-01-14T03:00:35.726Z,3.87
2019-01-14T03:05:38.942Z,3.77
2019-01-14T03:10:42.146Z,3.81
2019-01-14T03:15:45.432Z,3.74
2019-01-14T03:20:48.746Z,3.67
2019-01-14T03:25:58.004Z,3.72
2019-01-14T03:30:55.522Z,3.63
2019-01-14T03:35:58.744Z,3.65
2019-01-14T03:41:02.155Z,3.65
2019-01-14T03:46:05.376Z,3.67
2019-01-14T03:51:08.597Z,3.56
2019-01-14T03:56:11.806Z,3.55
2019-01-14T04:01:15.027Z,3.48
2019-01-14T04:06:18.409Z,3.56
2019-01-14T04:11:21.611Z,3.50
2019-01-14T04:16:24.842Z,3.59
2019-01-14T04:21:28.071Z,3.60
2019-01-14T04:26:31.314Z,3.54
2019-01-14T04:31:34.535Z,3.55
2019-01-14T04:36:37.739Z,3.61
2019-01-14T04:41:40.948Z,3.62
2019-01-14T04:46:44.274Z,3.59
2019-01-14T04:51:47.588Z,3.59
2019-01-14T04:56:50.827Z,3.60
2019-01-14T05:01:55.142Z,3.60
2019-01-14T05:06:58.410Z,3.50
2019-01-14T05:12:01.863Z,3.68
2019-01-14T05:17:05.119Z,3.66
2019-01-14T05:22:08.394Z,3.57
2019-01-14T05:27:11.762Z,3.46
2019-01-14T05:32:15.138Z,3.49
2019-01-14T05:37:18.504Z,3.33
2019-01-14T05:42:21.933Z,3.26
2019-01-14T05:47:25.237Z,3.04
2019-01-14T05:52:28.457Z,2.89
2019-01-14T05:57:31.728Z,2.82
2019-01-14T06:02:35.133Z,2.83
2019-01-14T06:07:44.814Z,2.90
2019-01-14T06:12:41.842Z,2.93
2019-01-14T06:17:45.072Z,2.87
2019-01-14T06:22:48.418Z,2.83
2019-01-14T06:27:51.787Z,2.66
2019-01-14T06:32:55.060Z,2.64
2019-01-14T06:37:58.280Z,2.47
2019-01-14T06:43:01.477Z,2.46
2019-01-14T06:48:05.105Z,2.42
2019-01-14T06:53:08.369Z,2.41
2019-01-14T06:58:11.654Z,2.41
2019-01-14T07:03:15.072Z,2.42
2019-01-14T07:08:18.354Z,2.32
2019-01-14T07:13:21.710Z,2.31
2019-01-14T07:18:25.063Z,2.16
2019-01-14T07:23:28.378Z,2.03
2019-01-14T07:28:31.667Z,2.13
2019-01-14T07:33:34.965Z,2.27
2019-01-14T07:38:38.346Z,2.20
2019-01-14T07:43:41.545Z,2.25
2019-01-14T07:48:44.751Z,2.32
2019-01-14T07:53:48.085Z,2.39
2019-01-14T07:58:51.283Z,2.44
2019-01-14T08:03:54.758Z,2.46
2019-01-14T08:08:57.981Z,2.48
2019-01-14T08:14:01.273Z,2.46
2019-01-14T08:19:04.647Z,2.37
2019-01-14T08:24:07.851Z,2.33
2019-01-14T08:29:11.081Z,2.37
2019-01-14T08:34:14.295Z,2.45
2019-01-14T08:39:17.627Z,2.52
2019-01-14T08:44:22.768Z,2.65
2019-01-14T08:49:26.073Z,2.90
2019-01-14T08:54:29.289Z,3.03
2019-01-14T08:59:32.707Z,3.11
2019-01-14T09:04:35.930Z,3.05
2019-01-14T09:09:39.222Z,3.13
2019-01-14T09:14:42.441Z,3.27
2019-01-14T09:19:45.680Z,3.39
2019-01-14T09:24:49.076Z,3.47
2019-01-14T09:29:52.499Z,3.53
2019-01-14T09:34:55.823Z,3.69
2019-01-14T09:39:59.028Z,3.73
2019-01-14T09:45:02.343Z,3.70
2019-01-14T09:50:06.811Z,3.53
2019-01-14T09:55:11.903Z,3.35
2019-01-14T10:00:15.311Z,3.50
2019-01-14T10:05:19.463Z,3.54
2019-01-14T10:10:22.739Z,3.43
2019-01-14T10:15:26.122Z,3.39
2019-01-14T10:20:29.483Z,3.42
2019-01-14T10:25:34.375Z,3.36
2019-01-14T10:30:37.711Z,3.45
2019-01-14T10:35:40.931Z,3.53
2019-01-14T10:40:44.243Z,3.56
2019-01-14T10:45:47.545Z,3.41
2019-01-14T10:50:50.779Z,3.55
2019-01-14T10:55:54.001Z,3.53
2019-01-14T11:00:57.233Z,3.63
2019-01-14T11:06:00.500Z,3.71
2019-01-14T11:11:03.721Z,3.83
2019-01-14T11:16:07.036Z,4.03
2019-01-14T11:21:14.361Z,4.09
2019-01-14T11:26:13.575Z,4.03
2019-01-14T11:31:17.899Z,3.97
2019-01-14T11:36:21.287Z,3.86
2019-01-14T11:41:25.544Z,3.84
2019-01-14T11:46:28.742Z,3.90
2019-01-14T11:51:32.163Z,3.94
2019-01-14T11:56:35.363Z,3.92
2019-01-14T12:01:38.567Z,3.92
2019-01-14T12:06:41.935Z,3.93
2019-01-14T12:11:45.302Z,3.87
2019-01-14T12:16:48.508Z,3.86
2019-01-14T12:21:51.734Z,3.88
2019-01-14T12:26:55.037Z,3.86
2019-01-14T12:31:58.443Z,3.75
2019-01-14T12:37:01.755Z,3.69
2019-01-14T12:42:04.967Z,3.67
2019-01-14T12:47:08.396Z,3.77
2019-01-14T12:52:11.625Z,3.89
2019-01-14T12:57:14.858Z,3.84
2019-01-14T13:02:18.184Z,3.76
2019-01-14T13:07:21.418Z,3.69
2019-01-14T13:12:24.630Z,3.65
2019-01-14T13:17:27.954Z,3.53
2019-01-14T13:22:31.207Z,3.36
2019-01-14T13:27:34.551Z,2.44
2019-01-14T13:32:37.858Z,2.12
2019-01-14T13:37:41.059Z,1.97
2019-01-14T13:42:44.387Z,1.95
2019-01-14T13:47:47.746Z,1.96
2019-01-14T13:52:51.007Z,2.20
2019-01-14T13:57:54.335Z,2.30
2019-01-14T14:02:57.572Z,2.25
2019-01-14T14:08:00.847Z,2.38
2019-01-14T14:13:04.144Z,2.32
2019-01-14T14:18:07.452Z,2.37
2019-01-14T14:23:11.010Z,2.45
2019-01-14T14:28:14.312Z,2.77
2019-01-14T14:33:17.631Z,3.26
2019-01-14T14:38:20.936Z,3.34
2019-01-14T14:43:24.285Z,4.19
2019-01-14T14:48:27.723Z,2.98
2019-01-14T14:53:31.161Z,2.84
2019-01-14T14:58:34.379Z,2.66
2019-01-14T15:03:37.644Z,2.50
2019-01-14T15:08:40.956Z,2.33
2019-01-14T15:13:44.475Z,2.25
2019-01-14T15:18:47.974Z,2.13
2019-01-14T15:23:51.226Z,2.04
2019-01-14T15:28:54.832Z,2.05
2019-01-14T15:33:59.245Z,2.06
2019-01-14T15:39:02.591Z,2.14
2019-01-14T15:44:06.147Z,1.99
2019-01-14T15:49:09.477Z,1.97
2019-01-14T15:54:12.752Z,1.90
2019-01-14T15:59:16.132Z,1.90
2019-01-14T16:04:19.377Z,1.89
2019-01-14T16:09:22.787Z,1.89
2019-01-14T16:14:26.036Z,1.85
2019-01-14T16:19:29.352Z,1.80
2019-01-14T16:24:32.700Z,1.82
2019-01-14T16:29:36.096Z,1.83
2019-01-14T16:34:39.408Z,1.79
2019-01-14T16:39:42.714Z,1.79
2019-01-14T16:44:47.167Z,1.80
2019-01-14T16:49:50.479Z,1.80
2019-01-14T16:54:53.780Z,1.68
2019-01-14T16:59:57.092Z,1.42
2019-01-14T17:05:00.426Z,1.32
2019-01-14T17:10:05.946Z,1.25
2019-01-14T17:15:09.433Z,1.22
2019-01-14T17:20:15.713Z,1.15
2019-01-14T17:25:19.048Z,1.17
2019-01-14T17:30:22.445Z,1.19
2019-01-14T17:35:25.766Z,1.29
2019-01-14T17:40:32.742Z,1.25
2019-01-14T17:45:32.419Z,1.22
2019-01-14T17:50:36.053Z,1.24
2019-01-14T17:55:39.192Z,1.10
2019-01-14T18:00:42.507Z,1.11
2019-01-14T18:05:45.919Z,1.09
2019-01-14T18:10:49.410Z,1.02
2019-01-14T18:15:52.727Z,1.08
2019-01-14T18:20:56.269Z,0.95
2019-01-14T18:25:59.774Z,0.96
2019-01-14T18:31:03.287Z,1.10
2019-01-14T18:36:06.638Z,1.20
2019-01-14T18:41:10.017Z,1.18
2019-01-14T18:46:13.363Z,1.17
2019-01-14T18:51:16.841Z,1.25
2019-01-14T18:56:20.170Z,1.26
2019-01-14T19:01:23.540Z,1.22
2019-01-14T19:06:26.963Z,1.25
2019-01-14T19:11:30.483Z,1.15
2019-01-14T19:16:34.011Z,1.19
2019-01-14T19:21:37.411Z,1.18
2019-01-14T19:26:40.840Z,1.05
2019-01-14T19:31:44.256Z,0.96
2019-01-14T19:36:47.643Z,0.80
2019-01-14T19:41:51.185Z,0.61
2019-01-14T19:46:54.507Z,0.65
2019-01-14T19:51:57.886Z,0.63
2019-01-14T19:57:01.195Z,0.69
2019-01-14T20:02:04.831Z,0.70
2019-01-14T20:07:11.175Z,0.74
2019-01-14T20:12:11.771Z,0.68
2019-01-14T20:17:15.159Z,0.52
2019-01-14T20:22:18.472Z,0.34
2019-01-14T20:27:21.789Z,0.28
2019-01-14T20:32:25.192Z,0.32
2019-01-14T20:37:28.719Z,0.17
2019-01-14T20:42:32.565Z,0.33
2019-01-14T20:47:36.257Z,0.26
2019-01-14T20:52:39.544Z,0.20
2019-01-14T20:57:44.206Z,0.25
2019-01-14T21:02:47.716Z,0.18
2019-01-14T21:07:51.088Z,0.26
2019-01-14T21:12:56.547Z,0.23
2019-01-14T21:18:00.383Z,0.25
2019-01-14T21:23:04.296Z,0.20
2019-01-14T21:28:07.703Z,0.27
2019-01-14T21:33:11.231Z,0.28
2019-01-14T21:38:15.066Z,0.28
2019-01-14T21:43:18.621Z,0.28
2019-01-14T21:48:21.994Z,0.30
2019-01-14T21:53:25.747Z,0.28
2019-01-14T21:58:28.962Z,0.28
2019-01-14T22:03:32.669Z,0.11
2019-01-14T22:08:36.207Z,-0.15
2019-01-14T22:13:39.539Z,-0.80
2019-01-14T22:18:42.960Z,-0.90
2019-01-14T22:23:46.273Z,-0.93
2019-01-14T22:28:49.655Z,-0.82
2019-01-14T22:33:53.287Z,-0.79
2019-01-14T22:38:57.015Z,-0.70
2019-01-14T22:44:00.423Z,-0.58
2019-01-14T22:49:04.270Z,-0.71
2019-01-14T22:54:07.775Z,-0.73
2019-01-14T22:59:11.051Z,-0.66
2019-01-14T23:04:14.652Z,-0.42
2019-01-14T23:09:17.923Z,-0.34
2019-01-14T23:14:21.199Z,-0.37
2019-01-14T23:19:24.469Z,-0.32
2019-01-14T23:24:27.724Z,-0.30
2019-01-14T23:29:31.138Z,-0.26
2019-01-14T23:34:34.403Z,-0.15
2019-01-14T23:39:37.670Z,-0.19
2019-01-14T23:44:40.937Z,-0.12
2019-01-14T23:49:44.226Z,-0.18
2019-01-14T23:54:47.500Z,-0.23
2019-01-14T23:59:50.876Z,-0.24
